Terminal Aerodrome Forecast
Issued by NWS

Home | Current Version | Previous Version | Text Only | Print | Product List | Glossary On
Versions: 1 2 3 4 5 6 7 8 9 10 11 12
000
FTUS42 KTAE 261731
TAFVLD
TAF
KVLD 261731Z 2618/2718 22010KT P6SM SCT040 BKN200
     FM270000 22006KT P6SM BKN030
     FM270600 00000KT P6SM OVC010
     FM271400 27006KT P6SM BKN030=

USA.gov is the U.S. government's official web portal to all federal, state and local government web resources and services.